sensor_id;sensor_type;location;lat;lon;timestamp;P1;P2;P0
77320;PMS7003;66382;52.252;8.780;2024-02-21T00:00:07;34.25;33.00;20.50
77320;PMS7003;66382;52.252;8.780;2024-02-21T00:02:33;34.00;32.50;18.75
77320;PMS7003;66382;52.252;8.780;2024-02-21T00:05:00;29.25;29.25;22.00
77320;PMS7003;66382;52.252;8.780;2024-02-21T00:07:26;33.50;31.25;20.50
77320;PMS7003;66382;52.252;8.780;2024-02-21T00:09:51;38.25;35.25;23.00
77320;PMS7003;66382;52.252;8.780;2024-02-21T00:12:16;30.00;30.00;21.00
77320;PMS7003;66382;52.252;8.780;2024-02-21T00:14:42;35.50;33.75;23.00
77320;PMS7003;66382;52.252;8.780;2024-02-21T00:17:07;33.50;32.25;21.00
77320;PMS7003;66382;52.252;8.780;2024-02-21T00:19:33;35.50;34.00;21.00
77320;PMS7003;66382;52.252;8.780;2024-02-21T00:21:59;33.00;32.00;21.50
77320;PMS7003;66382;52.252;8.780;2024-02-21T00:24:25;37.50;35.00;22.50
77320;PMS7003;66382;52.252;8.780;2024-02-21T00:26:50;28.00;28.00;20.00
77320;PMS7003;66382;52.252;8.780;2024-02-21T00:29:16;39.75;36.50;23.75
77320;PMS7003;66382;52.252;8.780;2024-02-21T00:31:41;38.75;35.75;21.00
77320;PMS7003;66382;52.252;8.780;2024-02-21T00:34:07;35.50;33.75;22.50
77320;PMS7003;66382;52.252;8.780;2024-02-21T00:36:32;34.50;33.00;22.00
77320;PMS7003;66382;52.252;8.780;2024-02-21T00:38:59;28.50;27.00;19.75
77320;PMS7003;66382;52.252;8.780;2024-02-21T00:41:24;41.50;37.25;23.00
77320;PMS7003;66382;52.252;8.780;2024-02-21T00:43:50;39.50;36.50;22.50
77320;PMS7003;66382;52.252;8.780;2024-02-21T00:46:15;31.00;30.75;21.00
77320;PMS7003;66382;52.252;8.780;2024-02-21T00:48:40;31.00;30.50;17.25
77320;PMS7003;66382;52.252;8.780;2024-02-21T00:51:06;26.75;26.75;16.50
77320;PMS7003;66382;52.252;8.780;2024-02-21T00:53:31;37.25;34.00;22.50
77320;PMS7003;66382;52.252;8.780;2024-02-21T00:55:58;36.75;34.50;22.25
77320;PMS7003;66382;52.252;8.780;2024-02-21T00:58:23;36.00;34.25;22.50
77320;PMS7003;66382;52.252;8.780;2024-02-21T01:00:49;35.75;33.25;21.00
77320;PMS7003;66382;52.252;8.780;2024-02-21T01:03:14;34.75;32.50;21.25
77320;PMS7003;66382;52.252;8.780;2024-02-21T01:05:40;30.75;30.50;18.50
77320;PMS7003;66382;52.252;8.780;2024-02-21T01:08:05;35.75;34.00;21.00
77320;PMS7003;66382;52.252;8.780;2024-02-21T01:10:31;28.50;28.50;20.75
77320;PMS7003;66382;52.252;8.780;2024-02-21T01:12:57;33.50;32.50;21.25
77320;PMS7003;66382;52.252;8.780;2024-02-21T01:15:23;34.00;31.50;20.75
77320;PMS7003;66382;52.252;8.780;2024-02-21T01:17:49;34.00;31.75;21.00
77320;PMS7003;66382;52.252;8.780;2024-02-21T01:20:14;36.25;34.00;21.00
77320;PMS7003;66382;52.252;8.780;2024-02-21T01:22:40;33.75;32.00;20.00
77320;PMS7003;66382;52.252;8.780;2024-02-21T01:25:05;37.25;33.75;19.00
77320;PMS7003;66382;52.252;8.780;2024-02-21T01:27:32;38.50;34.50;20.75
77320;PMS7003;66382;52.252;8.780;2024-02-21T01:29:58;32.00;31.50;21.00
77320;PMS7003;66382;52.252;8.780;2024-02-21T01:32:24;36.00;33.50;21.25
77320;PMS7003;66382;52.252;8.780;2024-02-21T01:34:49;39.00;35.00;21.50
77320;PMS7003;66382;52.252;8.780;2024-02-21T01:37:15;37.75;33.75;20.25
77320;PMS7003;66382;52.252;8.780;2024-02-21T01:39:40;37.00;35.00;20.75
77320;PMS7003;66382;52.252;8.780;2024-02-21T01:42:06;33.75;32.50;21.25
77320;PMS7003;66382;52.252;8.780;2024-02-21T01:44:31;33.00;31.00;17.00
77320;PMS7003;66382;52.252;8.780;2024-02-21T01:46:58;32.00;31.00;19.00
77320;PMS7003;66382;52.252;8.780;2024-02-21T01:49:24;31.00;30.50;20.25
77320;PMS7003;66382;52.252;8.780;2024-02-21T01:51:49;32.50;31.50;20.00
77320;PMS7003;66382;52.252;8.780;2024-02-21T01:54:16;37.25;34.50;22.00
77320;PMS7003;66382;52.252;8.780;2024-02-21T01:56:43;28.25;28.25;20.25
77320;PMS7003;66382;52.252;8.780;2024-02-21T01:59:11;34.25;32.75;20.50
77320;PMS7003;66382;52.252;8.780;2024-02-21T02:01:38;29.50;29.50;18.00
77320;PMS7003;66382;52.252;8.780;2024-02-21T02:04:06;31.25;31.00;20.25
77320;PMS7003;66382;52.252;8.780;2024-02-21T02:06:32;30.00;30.00;20.25
77320;PMS7003;66382;52.252;8.780;2024-02-21T02:08:57;31.25;31.00;21.00
77320;PMS7003;66382;52.252;8.780;2024-02-21T02:11:23;32.00;31.50;20.75
77320;PMS7003;66382;52.252;8.780;2024-02-21T02:13:48;33.50;32.25;21.75
77320;PMS7003;66382;52.252;8.780;2024-02-21T02:16:14;35.75;34.00;21.00
77320;PMS7003;66382;52.252;8.780;2024-02-21T02:18:39;29.75;29.75;19.00
77320;PMS7003;66382;52.252;8.780;2024-02-21T02:21:07;34.75;33.00;22.25
77320;PMS7003;66382;52.252;8.780;2024-02-21T02:23:40;36.25;34.00;21.00
77320;PMS7003;66382;52.252;8.780;2024-02-21T02:26:07;32.00;31.25;21.00
77320;PMS7003;66382;52.252;8.780;2024-02-21T02:28:32;34.00;32.50;20.50
77320;PMS7003;66382;52.252;8.780;2024-02-21T02:30:58;33.75;31.50;21.00
77320;PMS7003;66382;52.252;8.780;2024-02-21T02:33:23;33.75;33.00;22.75
77320;PMS7003;66382;52.252;8.780;2024-02-21T02:35:49;31.25;31.00;21.00
77320;PMS7003;66382;52.252;8.780;2024-02-21T02:38:14;35.00;33.25;20.75
77320;PMS7003;66382;52.252;8.780;2024-02-21T02:40:41;36.00;33.75;22.00
77320;PMS7003;66382;52.252;8.780;2024-02-21T02:43:06;37.50;34.75;22.25
77320;PMS7003;66382;52.252;8.780;2024-02-21T02:45:32;21.00;21.00;13.50
77320;PMS7003;66382;52.252;8.780;2024-02-21T02:47:58;35.00;33.25;20.75
77320;PMS7003;66382;52.252;8.780;2024-02-21T02:50:23;34.75;33.25;21.00
77320;PMS7003;66382;52.252;8.780;2024-02-21T02:52:50;28.00;28.00;19.25
77320;PMS7003;66382;52.252;8.780;2024-02-21T02:55:15;31.75;31.25;19.00
77320;PMS7003;66382;52.252;8.780;2024-02-21T02:57:42;35.25;34.00;21.00
77320;PMS7003;66382;52.252;8.780;2024-02-21T03:00:08;29.00;29.00;18.25
77320;PMS7003;66382;52.252;8.780;2024-02-21T03:02:35;39.00;35.00;22.75
77320;PMS7003;66382;52.252;8.780;2024-02-21T03:05:00;29.25;29.25;18.00
77320;PMS7003;66382;52.252;8.780;2024-02-21T03:07:26;36.00;34.00;22.00
77320;PMS7003;66382;52.252;8.780;2024-02-21T03:09:51;30.25;30.25;20.25
77320;PMS7003;66382;52.252;8.780;2024-02-21T03:12:17;36.25;34.50;21.50
77320;PMS7003;66382;52.252;8.780;2024-02-21T03:14:43;33.25;32.25;21.00
77320;PMS7003;66382;52.252;8.780;2024-02-21T03:17:09;36.50;34.25;21.75
77320;PMS7003;66382;52.252;8.780;2024-02-21T03:19:34;32.25;31.25;21.00
77320;PMS7003;66382;52.252;8.780;2024-02-21T03:22:00;33.00;31.75;18.25
77320;PMS7003;66382;52.252;8.780;2024-02-21T03:24:25;36.75;33.50;22.75
77320;PMS7003;66382;52.252;8.780;2024-02-21T03:26:50;36.75;34.75;20.25
77320;PMS7003;66382;52.252;8.780;2024-02-21T03:29:16;32.25;31.25;21.00
77320;PMS7003;66382;52.252;8.780;2024-02-21T03:31:43;34.50;33.50;21.00
77320;PMS7003;66382;52.252;8.780;2024-02-21T03:34:09;36.00;34.00;20.75
77320;PMS7003;66382;52.252;8.780;2024-02-21T03:36:35;31.00;30.75;20.00
77320;PMS7003;66382;52.252;8.780;2024-02-21T03:39:00;28.50;28.00;18.50
77320;PMS7003;66382;52.252;8.780;2024-02-21T03:41:26;36.75;34.50;20.50
77320;PMS7003;66382;52.252;8.780;2024-02-21T03:43:51;33.75;31.75;21.00
77320;PMS7003;66382;52.252;8.780;2024-02-21T03:46:17;32.75;31.75;20.50
77320;PMS7003;66382;52.252;8.780;2024-02-21T03:48:44;36.50;33.25;21.00
77320;PMS7003;66382;52.252;8.780;2024-02-21T03:51:09;36.25;34.00;21.00
77320;PMS7003;66382;52.252;8.780;2024-02-21T03:53:34;32.75;31.75;21.00
77320;PMS7003;66382;52.252;8.780;2024-02-21T03:56:00;36.75;33.75;21.75
77320;PMS7003;66382;52.252;8.780;2024-02-21T03:58:26;36.25;33.50;20.75
77320;PMS7003;66382;52.252;8.780;2024-02-21T04:00:52;34.25;33.00;21.00
77320;PMS7003;66382;52.252;8.780;2024-02-21T04:03:17;28.75;28.00;18.50
77320;PMS7003;66382;52.252;8.780;2024-02-21T04:05:44;32.00;31.75;21.25
77320;PMS7003;66382;52.252;8.780;2024-02-21T04:08:09;31.50;31.25;19.25
77320;PMS7003;66382;52.252;8.780;2024-02-21T04:10:35;34.25;31.50;17.00
77320;PMS7003;66382;52.252;8.780;2024-02-21T04:13:00;33.75;31.75;20.50
77320;PMS7003;66382;52.252;8.780;2024-02-21T04:15:25;35.25;33.50;20.50
77320;PMS7003;66382;52.252;8.780;2024-02-21T04:17:51;31.25;29.75;18.75
77320;PMS7003;66382;52.252;8.780;2024-02-21T04:20:16;32.75;31.75;20.25
77320;PMS7003;66382;52.252;8.780;2024-02-21T04:22:43;32.75;32.00;20.00
77320;PMS7003;66382;52.252;8.780;2024-02-21T04:25:09;34.25;32.75;21.50
77320;PMS7003;66382;52.252;8.780;2024-02-21T04:27:34;37.75;35.00;21.00
77320;PMS7003;66382;52.252;8.780;2024-02-21T04:30:00;29.75;29.25;21.00
77320;PMS7003;66382;52.252;8.780;2024-02-21T04:32:25;35.50;33.75;21.25
77320;PMS7003;66382;52.252;8.780;2024-02-21T04:34:51;35.00;33.25;21.00
77320;PMS7003;66382;52.252;8.780;2024-02-21T04:37:16;32.25;31.75;20.25
77320;PMS7003;66382;52.252;8.780;2024-02-21T04:39:43;32.75;32.25;21.00
77320;PMS7003;66382;52.252;8.780;2024-02-21T04:42:08;30.50;30.50;20.00
77320;PMS7003;66382;52.252;8.780;2024-02-21T04:44:34;35.25;33.75;23.25
77320;PMS7003;66382;52.252;8.780;2024-02-21T04:46:59;37.75;35.00;22.25
77320;PMS7003;66382;52.252;8.780;2024-02-21T04:49:24;35.50;34.00;21.00
77320;PMS7003;66382;52.252;8.780;2024-02-21T04:51:50;27.50;27.50;18.25
77320;PMS7003;66382;52.252;8.780;2024-02-21T04:54:15;32.50;31.50;18.50
77320;PMS7003;66382;52.252;8.780;2024-02-21T04:56:42;35.25;33.75;20.25
77320;PMS7003;66382;52.252;8.780;2024-02-21T04:59:07;35.75;34.00;21.00
77320;PMS7003;66382;52.252;8.780;2024-02-21T05:01:33;37.75;35.00;21.00
77320;PMS7003;66382;52.252;8.780;2024-02-21T05:03:58;32.25;31.25;18.00
77320;PMS7003;66382;52.252;8.780;2024-02-21T05:06:24;32.75;32.25;20.50
77320;PMS7003;66382;52.252;8.780;2024-02-21T05:08:49;38.25;34.00;21.00
77320;PMS7003;66382;52.252;8.780;2024-02-21T05:11:15;34.00;32.50;21.00
77320;PMS7003;66382;52.252;8.780;2024-02-21T05:13:41;32.75;32.00;20.00
77320;PMS7003;66382;52.252;8.780;2024-02-21T05:16:07;32.75;32.00;18.50
77320;PMS7003;66382;52.252;8.780;2024-02-21T05:18:32;31.50;31.25;21.00
77320;PMS7003;66382;52.252;8.780;2024-02-21T05:20:58;34.75;32.75;21.00
77320;PMS7003;66382;52.252;8.780;2024-02-21T05:23:24;33.25;32.50;18.75
77320;PMS7003;66382;52.252;8.780;2024-02-21T05:25:49;34.00;32.00;21.00
77320;PMS7003;66382;52.252;8.780;2024-02-21T05:28:16;32.00;31.75;18.50
77320;PMS7003;66382;52.252;8.780;2024-02-21T05:30:42;33.75;30.25;18.25
77320;PMS7003;66382;52.252;8.780;2024-02-21T05:33:08;36.00;33.75;21.00
77320;PMS7003;66382;52.252;8.780;2024-02-21T05:35:34;28.75;28.75;21.50
77320;PMS7003;66382;52.252;8.780;2024-02-21T05:38:00;32.50;31.50;19.75
77320;PMS7003;66382;52.252;8.780;2024-02-21T05:40:25;29.25;29.25;21.00
77320;PMS7003;66382;52.252;8.780;2024-02-21T05:42:51;33.00;32.25;19.75
77320;PMS7003;66382;52.252;8.780;2024-02-21T05:45:16;33.50;32.50;19.50
77320;PMS7003;66382;52.252;8.780;2024-02-21T05:47:43;34.50;32.00;19.25
77320;PMS7003;66382;52.252;8.780;2024-02-21T05:50:09;29.75;29.75;19.50
77320;PMS7003;66382;52.252;8.780;2024-02-21T05:52:35;33.25;32.25;21.00
77320;PMS7003;66382;52.252;8.780;2024-02-21T05:55:00;34.00;33.00;19.50
77320;PMS7003;66382;52.252;8.780;2024-02-21T05:57:26;37.00;34.00;21.00
77320;PMS7003;66382;52.252;8.780;2024-02-21T05:59:51;33.25;31.50;21.00
77320;PMS7003;66382;52.252;8.780;2024-02-21T06:02:17;31.00;31.00;20.25
77320;PMS7003;66382;52.252;8.780;2024-02-21T06:04:43;34.50;33.25;20.75
77320;PMS7003;66382;52.252;8.780;2024-02-21T06:07:09;37.00;34.50;23.00
77320;PMS7003;66382;52.252;8.780;2024-02-21T06:09:34;35.00;32.00;21.00
77320;PMS7003;66382;52.252;8.780;2024-02-21T06:12:00;41.25;36.50;21.75
77320;PMS7003;66382;52.252;8.780;2024-02-21T06:14:26;35.75;33.75;23.00
77320;PMS7003;66382;52.252;8.780;2024-02-21T06:16:51;36.75;34.50;21.25
77320;PMS7003;66382;52.252;8.780;2024-02-21T06:19:17;36.25;33.75;21.50
77320;PMS7003;66382;52.252;8.780;2024-02-21T06:21:44;33.75;32.75;21.25
77320;PMS7003;66382;52.252;8.780;2024-02-21T06:24:09;33.00;32.25;21.00
77320;PMS7003;66382;52.252;8.780;2024-02-21T06:26:34;39.50;36.50;22.75
77320;PMS7003;66382;52.252;8.780;2024-02-21T06:29:00;36.75;34.75;21.50
77320;PMS7003;66382;52.252;8.780;2024-02-21T06:31:25;31.00;31.00;23.00
77320;PMS7003;66382;52.252;8.780;2024-02-21T06:33:52;29.75;29.75;20.25
77320;PMS7003;66382;52.252;8.780;2024-02-21T06:36:17;37.00;34.00;21.75
77320;PMS7003;66382;52.252;8.780;2024-02-21T06:38:44;38.50;35.25;23.50
77320;PMS7003;66382;52.252;8.780;2024-02-21T06:41:14;27.75;27.75;21.00
77320;PMS7003;66382;52.252;8.780;2024-02-21T06:43:40;39.75;36.00;23.75
77320;PMS7003;66382;52.252;8.780;2024-02-21T06:46:05;38.50;35.50;23.00
77320;PMS7003;66382;52.252;8.780;2024-02-21T06:48:31;36.00;33.25;22.00
77320;PMS7003;66382;52.252;8.780;2024-02-21T06:50:56;34.75;32.75;21.00
77320;PMS7003;66382;52.252;8.780;2024-02-21T06:53:22;37.50;35.00;22.00
77320;PMS7003;66382;52.252;8.780;2024-02-21T06:55:48;34.25;33.00;22.75
77320;PMS7003;66382;52.252;8.780;2024-02-21T06:58:14;41.75;37.25;23.25
77320;PMS7003;66382;52.252;8.780;2024-02-21T07:00:39;36.00;34.00;21.00
77320;PMS7003;66382;52.252;8.780;2024-02-21T07:03:05;35.50;34.00;21.25
77320;PMS7003;66382;52.252;8.780;2024-02-21T07:05:30;38.50;34.75;23.00
77320;PMS7003;66382;52.252;8.780;2024-02-21T07:07:56;33.25;32.25;22.00
77320;PMS7003;66382;52.252;8.780;2024-02-21T07:10:21;32.75;32.25;21.25
77320;PMS7003;66382;52.252;8.780;2024-02-21T07:12:48;35.75;33.50;21.50
77320;PMS7003;66382;52.252;8.780;2024-02-21T07:15:14;37.00;34.75;21.50
77320;PMS7003;66382;52.252;8.780;2024-02-21T07:17:39;37.25;33.75;21.00
77320;PMS7003;66382;52.252;8.780;2024-02-21T07:20:05;36.00;34.00;22.00
77320;PMS7003;66382;52.252;8.780;2024-02-21T07:22:31;35.75;34.00;21.00
77320;PMS7003;66382;52.252;8.780;2024-02-21T07:24:57;33.75;32.00;20.00
77320;PMS7003;66382;52.252;8.780;2024-02-21T07:27:22;34.75;33.25;22.00
77320;PMS7003;66382;52.252;8.780;2024-02-21T07:29:49;30.75;29.25;20.75
77320;PMS7003;66382;52.252;8.780;2024-02-21T07:32:14;30.00;30.00;19.50
77320;PMS7003;66382;52.252;8.780;2024-02-21T07:34:40;29.00;29.00;20.25
77320;PMS7003;66382;52.252;8.780;2024-02-21T07:37:05;33.00;31.00;19.00
77320;PMS7003;66382;52.252;8.780;2024-02-21T07:39:30;31.00;30.25;19.25
77320;PMS7003;66382;52.252;8.780;2024-02-21T07:41:56;32.75;30.50;19.50
77320;PMS7003;66382;52.252;8.780;2024-02-21T07:44:21;30.25;29.50;18.25
77320;PMS7003;66382;52.252;8.780;2024-02-21T07:46:48;30.00;28.75;19.50
77320;PMS7003;66382;52.252;8.780;2024-02-21T07:49:13;23.75;23.75;15.00
77320;PMS7003;66382;52.252;8.780;2024-02-21T07:51:39;27.25;27.25;17.75
77320;PMS7003;66382;52.252;8.780;2024-02-21T07:54:04;25.00;24.25;16.75
77320;PMS7003;66382;52.252;8.780;2024-02-21T07:56:30;26.25;25.75;18.25
77320;PMS7003;66382;52.252;8.780;2024-02-21T07:58:55;26.75;26.75;16.00
77320;PMS7003;66382;52.252;8.780;2024-02-21T08:01:21;23.75;22.00;15.25
77320;PMS7003;66382;52.252;8.780;2024-02-21T08:03:48;26.00;25.25;14.25
77320;PMS7003;66382;52.252;8.780;2024-02-21T08:06:13;23.00;22.00;11.50
77320;PMS7003;66382;52.252;8.780;2024-02-21T08:08:39;23.25;23.25;15.00
77320;PMS7003;66382;52.252;8.780;2024-02-21T08:11:04;19.00;19.00;11.50
77320;PMS7003;66382;52.252;8.780;2024-02-21T08:13:30;20.50;19.75;12.75
77320;PMS7003;66382;52.252;8.780;2024-02-21T08:15:55;25.50;24.25;16.00
77320;PMS7003;66382;52.252;8.780;2024-02-21T08:18:21;18.25;18.25;13.75
77320;PMS7003;66382;52.252;8.780;2024-02-21T08:20:47;20.00;20.00;12.50
77320;PMS7003;66382;52.252;8.780;2024-02-21T08:23:15;18.25;18.25;13.00
77320;PMS7003;66382;52.252;8.780;2024-02-21T08:25:41;19.25;19.25;14.25
77320;PMS7003;66382;52.252;8.780;2024-02-21T08:28:06;21.00;20.75;14.00
77320;PMS7003;66382;52.252;8.780;2024-02-21T08:30:32;13.25;13.25;10.00
77320;PMS7003;66382;52.252;8.780;2024-02-21T08:32:57;16.00;16.00;10.75
77320;PMS7003;66382;52.252;8.780;2024-02-21T08:35:23;19.50;19.50;12.75
77320;PMS7003;66382;52.252;8.780;2024-02-21T08:37:49;17.25;15.50;11.00
77320;PMS7003;66382;52.252;8.780;2024-02-21T08:40:15;16.00;16.00;11.50
77320;PMS7003;66382;52.252;8.780;2024-02-21T08:42:41;13.50;13.50;9.25
77320;PMS7003;66382;52.252;8.780;2024-02-21T08:45:07;13.00;13.00;10.00
77320;PMS7003;66382;52.252;8.780;2024-02-21T08:47:33;15.50;15.50;10.25
77320;PMS7003;66382;52.252;8.780;2024-02-21T08:49:58;15.00;15.00;12.00
77320;PMS7003;66382;52.252;8.780;2024-02-21T08:52:24;13.00;13.00;10.00
77320;PMS7003;66382;52.252;8.780;2024-02-21T08:54:51;16.50;16.50;11.75
77320;PMS7003;66382;52.252;8.780;2024-02-21T08:57:16;13.00;13.00;9.50
77320;PMS7003;66382;52.252;8.780;2024-02-21T08:59:41;15.00;14.50;10.50
77320;PMS7003;66382;52.252;8.780;2024-02-21T09:02:07;14.00;14.00;11.00
77320;PMS7003;66382;52.252;8.780;2024-02-21T09:04:32;10.50;10.50;8.75
77320;PMS7003;66382;52.252;8.780;2024-02-21T09:06:58;12.25;12.25;9.75
77320;PMS7003;66382;52.252;8.780;2024-02-21T09:09:24;13.50;13.50;10.00
77320;PMS7003;66382;52.252;8.780;2024-02-21T09:11:51;8.50;8.50;6.00
77320;PMS7003;66382;52.252;8.780;2024-02-21T09:14:16;10.50;10.50;7.00
77320;PMS7003;66382;52.252;8.780;2024-02-21T09:16:42;14.25;14.25;9.00
77320;PMS7003;66382;52.252;8.780;2024-02-21T09:19:07;13.50;13.50;9.50
77320;PMS7003;66382;52.252;8.780;2024-02-21T09:21:32;9.50;9.50;8.50
77320;PMS7003;66382;52.252;8.780;2024-02-21T09:23:58;11.00;11.00;9.00
77320;PMS7003;66382;52.252;8.780;2024-02-21T09:26:23;13.25;12.75;9.50
77320;PMS7003;66382;52.252;8.780;2024-02-21T09:28:50;9.25;9.25;7.00
77320;PMS7003;66382;52.252;8.780;2024-02-21T09:31:16;11.75;11.75;8.00
77320;PMS7003;66382;52.252;8.780;2024-02-21T09:33:41;11.75;11.75;8.75
77320;PMS7003;66382;52.252;8.780;2024-02-21T09:36:06;10.00;10.00;7.00
77320;PMS7003;66382;52.252;8.780;2024-02-21T09:38:32;11.50;10.50;8.00
77320;PMS7003;66382;52.252;8.780;2024-02-21T09:40:58;10.75;10.00;7.75
77320;PMS7003;66382;52.252;8.780;2024-02-21T09:43:24;10.75;10.75;8.00
77320;PMS7003;66382;52.252;8.780;2024-02-21T09:45:51;9.00;9.00;7.00
77320;PMS7003;66382;52.252;8.780;2024-02-21T09:48:25;7.50;7.50;5.00
77320;PMS7003;66382;52.252;8.780;2024-02-21T09:50:55;8.25;8.25;7.00
77320;PMS7003;66382;52.252;8.780;2024-02-21T09:53:22;10.25;10.25;8.00
77320;PMS7003;66382;52.252;8.780;2024-02-21T09:55:49;8.67;8.67;7.00
77320;PMS7003;66382;52.252;8.780;2024-02-21T09:58:15;9.00;9.00;6.75
77320;PMS7003;66382;52.252;8.780;2024-02-21T10:00:41;8.00;8.00;7.00
77320;PMS7003;66382;52.252;8.780;2024-02-21T10:03:08;10.75;10.75;7.25
77320;PMS7003;66382;52.252;8.780;2024-02-21T10:05:33;8.00;8.00;6.33
77320;PMS7003;66382;52.252;8.780;2024-02-21T10:07:59;8.00;8.00;7.00
77320;PMS7003;66382;52.252;8.780;2024-02-21T10:10:25;8.00;8.00;7.00
77320;PMS7003;66382;52.252;8.780;2024-02-21T10:12:50;9.33;9.33;6.00
77320;PMS7003;66382;52.252;8.780;2024-02-21T10:15:19;8.00;8.00;6.00
77320;PMS7003;66382;52.252;8.780;2024-02-21T10:17:45;7.33;7.33;5.00
77320;PMS7003;66382;52.252;8.780;2024-02-21T10:20:12;8.67;8.67;7.00
77320;PMS7003;66382;52.252;8.780;2024-02-21T10:22:38;8.00;8.00;6.00
77320;PMS7003;66382;52.252;8.780;2024-02-21T10:25:06;7.00;7.00;7.00
77320;PMS7003;66382;52.252;8.780;2024-02-21T10:27:32;9.00;9.00;8.00
77320;PMS7003;66382;52.252;8.780;2024-02-21T10:29:57;7.67;7.67;6.00
77320;PMS7003;66382;52.252;8.780;2024-02-21T10:32:23;6.67;6.00;5.00
77320;PMS7003;66382;52.252;8.780;2024-02-21T10:34:49;7.75;7.75;6.50
77320;PMS7003;66382;52.252;8.780;2024-02-21T10:37:16;4.33;4.33;4.00
77320;PMS7003;66382;52.252;8.780;2024-02-21T10:39:41;9.67;9.67;6.67
77320;PMS7003;66382;52.252;8.780;2024-02-21T10:42:07;7.33;7.33;6.00
77320;PMS7003;66382;52.252;8.780;2024-02-21T10:44:36;3.67;3.67;3.00
77320;PMS7003;66382;52.252;8.780;2024-02-21T10:47:03;7.33;7.33;6.00
77320;PMS7003;66382;52.252;8.780;2024-02-21T10:49:33;6.67;6.67;5.67
77320;PMS7003;66382;52.252;8.780;2024-02-21T10:52:05;7.67;7.67;6.00
77320;PMS7003;66382;52.252;8.780;2024-02-21T10:54:44;5.00;5.00;4.00
77320;PMS7003;66382;52.252;8.780;2024-02-21T10:57:11;8.00;8.00;6.00
77320;PMS7003;66382;52.252;8.780;2024-02-21T10:59:38;6.33;6.33;5.00
77320;PMS7003;66382;52.252;8.780;2024-02-21T11:02:05;6.67;6.67;5.00
77320;PMS7003;66382;52.252;8.780;2024-02-21T11:04:30;6.00;6.00;4.00
77320;PMS7003;66382;52.252;8.780;2024-02-21T11:06:58;7.33;6.33;4.67
77320;PMS7003;66382;52.252;8.780;2024-02-21T11:09:29;5.00;5.00;5.00
77320;PMS7003;66382;52.252;8.780;2024-02-21T11:11:56;8.00;8.00;6.00
77320;PMS7003;66382;52.252;8.780;2024-02-21T11:14:22;6.33;6.33;5.00
77320;PMS7003;66382;52.252;8.780;2024-02-21T11:16:50;22.25;22.25;15.00
77320;PMS7003;66382;52.252;8.780;2024-02-21T11:19:19;17.00;17.00;12.75
77320;PMS7003;66382;52.252;8.780;2024-02-21T11:21:45;11.33;11.33;8.33
77320;PMS7003;66382;52.252;8.780;2024-02-21T11:24:10;9.33;9.33;7.00
77320;PMS7003;66382;52.252;8.780;2024-02-21T11:26:36;9.00;9.00;7.33
77320;PMS7003;66382;52.252;8.780;2024-02-21T11:29:04;10.00;10.00;7.00
77320;PMS7003;66382;52.252;8.780;2024-02-21T11:31:38;13.00;13.00;9.00
77320;PMS7003;66382;52.252;8.780;2024-02-21T11:34:04;10.33;10.33;8.00
77320;PMS7003;66382;52.252;8.780;2024-02-21T11:36:29;13.67;13.67;10.67
77320;PMS7003;66382;52.252;8.780;2024-02-21T11:38:54;18.00;18.00;12.75
77320;PMS7003;66382;52.252;8.780;2024-02-21T11:41:28;11.00;11.00;9.00
77320;PMS7003;66382;52.252;8.780;2024-02-21T11:43:54;12.00;12.00;9.67
77320;PMS7003;66382;52.252;8.780;2024-02-21T11:46:21;10.67;10.67;7.00
77320;PMS7003;66382;52.252;8.780;2024-02-21T11:48:46;10.00;10.00;8.00
77320;PMS7003;66382;52.252;8.780;2024-02-21T11:51:12;14.00;13.75;10.50
77320;PMS7003;66382;52.252;8.780;2024-02-21T11:53:46;14.00;14.00;9.00
77320;PMS7003;66382;52.252;8.780;2024-02-21T11:56:12;14.75;14.75;11.00
77320;PMS7003;66382;52.252;8.780;2024-02-21T11:58:38;11.67;11.67;8.33
77320;PMS7003;66382;52.252;8.780;2024-02-21T12:01:04;14.75;14.75;10.00
77320;PMS7003;66382;52.252;8.780;2024-02-21T12:03:31;19.50;18.25;11.50
77320;PMS7003;66382;52.252;8.780;2024-02-21T12:05:56;13.50;13.50;10.50
77320;PMS7003;66382;52.252;8.780;2024-02-21T12:08:22;15.00;15.00;11.00
77320;PMS7003;66382;52.252;8.780;2024-02-21T12:10:48;10.25;10.25;8.25
77320;PMS7003;66382;52.252;8.780;2024-02-21T12:13:14;14.50;14.50;11.00
77320;PMS7003;66382;52.252;8.780;2024-02-21T12:15:39;22.50;22.50;14.50
77320;PMS7003;66382;52.252;8.780;2024-02-21T12:18:04;12.25;12.25;8.00
77320;PMS7003;66382;52.252;8.780;2024-02-21T12:20:31;11.67;11.67;8.00
77320;PMS7003;66382;52.252;8.780;2024-02-21T12:22:57;14.00;14.00;10.50
77320;PMS7003;66382;52.252;8.780;2024-02-21T12:25:25;13.67;13.67;10.00
77320;PMS7003;66382;52.252;8.780;2024-02-21T12:27:50;11.00;11.00;8.50
77320;PMS7003;66382;52.252;8.780;2024-02-21T12:30:16;11.50;11.50;8.00
77320;PMS7003;66382;52.252;8.780;2024-02-21T12:32:42;13.25;13.25;10.25
77320;PMS7003;66382;52.252;8.780;2024-02-21T12:35:07;11.33;11.33;10.00
77320;PMS7003;66382;52.252;8.780;2024-02-21T12:37:34;13.00;13.00;9.33
77320;PMS7003;66382;52.252;8.780;2024-02-21T12:40:00;14.33;13.67;9.00
77320;PMS7003;66382;52.252;8.780;2024-02-21T12:42:25;13.50;13.50;9.00
77320;PMS7003;66382;52.252;8.780;2024-02-21T12:44:51;11.75;11.75;9.00
77320;PMS7003;66382;52.252;8.780;2024-02-21T12:47:17;12.00;10.75;8.25
77320;PMS7003;66382;52.252;8.780;2024-02-21T12:49:42;10.00;10.00;8.50
77320;PMS7003;66382;52.252;8.780;2024-02-21T12:52:08;11.33;11.33;9.00
77320;PMS7003;66382;52.252;8.780;2024-02-21T12:54:35;8.75;8.75;7.50
77320;PMS7003;66382;52.252;8.780;2024-02-21T12:57:01;13.00;13.00;9.00
77320;PMS7003;66382;52.252;8.780;2024-02-21T12:59:26;13.33;13.33;9.00
77320;PMS7003;66382;52.252;8.780;2024-02-21T13:01:51;12.00;12.00;8.25
77320;PMS7003;66382;52.252;8.780;2024-02-21T13:04:17;12.50;12.50;9.00
77320;PMS7003;66382;52.252;8.780;2024-02-21T13:06:42;7.75;7.75;6.75
77320;PMS7003;66382;52.252;8.780;2024-02-21T13:09:08;8.25;8.25;8.00
77320;PMS7003;66382;52.252;8.780;2024-02-21T13:11:35;13.25;13.25;10.50
77320;PMS7003;66382;52.252;8.780;2024-02-21T13:14:00;12.00;12.00;9.00
77320;PMS7003;66382;52.252;8.780;2024-02-21T13:16:26;11.50;11.50;8.75
77320;PMS7003;66382;52.252;8.780;2024-02-21T13:18:51;11.50;10.50;7.50
77320;PMS7003;66382;52.252;8.780;2024-02-21T13:21:17;10.67;9.00;7.67
77320;PMS7003;66382;52.252;8.780;2024-02-21T13:23:42;10.00;10.00;7.00
77320;PMS7003;66382;52.252;8.780;2024-02-21T13:26:08;9.00;9.00;6.00
77320;PMS7003;66382;52.252;8.780;2024-02-21T13:28:34;12.50;12.50;8.50
77320;PMS7003;66382;52.252;8.780;2024-02-21T13:31:00;12.25;12.25;10.00
77320;PMS7003;66382;52.252;8.780;2024-02-21T13:33:25;11.00;11.00;8.25
77320;PMS7003;66382;52.252;8.780;2024-02-21T13:35:51;12.67;12.00;9.33
77320;PMS7003;66382;52.252;8.780;2024-02-21T13:38:16;10.00;10.00;8.00
77320;PMS7003;66382;52.252;8.780;2024-02-21T13:40:42;11.50;11.50;9.00
77320;PMS7003;66382;52.252;8.780;2024-02-21T13:43:07;11.25;11.25;9.00